createdAt,value
2019-02-10T00:00:07.141Z,58.91
2019-02-10T00:03:02.623Z,59.47
2019-02-10T00:05:31.634Z,59.25
2019-02-10T00:08:33.812Z,59.24
2019-02-10T00:14:01.599Z,58.25
2019-02-10T00:20:40.937Z,58.52
2019-02-10T00:23:31.314Z,58.69
2019-02-10T00:33:15.347Z,57.99
2019-02-10T00:36:05.704Z,58.76
2019-02-10T00:38:51.166Z,58.76
2019-02-10T00:41:53.940Z,59.00
2019-02-10T00:50:35.830Z,58.99
2019-02-10T00:53:20.230Z,58.67
2019-02-10T01:05:15.423Z,59.32
2019-02-10T01:17:06.932Z,59.00
2019-02-10T01:20:04.923Z,59.38
2019-02-10T01:26:32.917Z,60.07
2019-02-10T01:29:31.003Z,59.95
2019-02-10T01:32:27.485Z,60.35
2019-02-10T01:50:41.278Z,61.10
2019-02-10T01:53:40.406Z,60.06
2019-02-10T01:59:19.851Z,58.74
2019-02-10T02:02:32.555Z,59.04
2019-02-10T02:08:18.633Z,59.45
2019-02-10T02:11:17.853Z,60.34
2019-02-10T02:17:09.760Z,59.67
2019-02-10T02:26:32.474Z,58.20
2019-02-10T02:32:57.995Z,60.97
2019-02-10T02:38:48.774Z,61.43
2019-02-10T02:41:48.079Z,62.23
2019-02-10T02:44:16.265Z,63.09
2019-02-10T02:47:04.306Z,64.83
2019-02-10T02:58:57.625Z,66.72
2019-02-10T03:01:45.016Z,67.34
2019-02-10T03:04:46.470Z,69.25
2019-02-10T03:09:46.213Z,67.42
2019-02-10T03:12:14.706Z,67.89
2019-02-10T03:18:03.101Z,69.73
2019-02-10T03:20:50.654Z,68.58
2019-02-10T03:26:38.209Z,69.01
2019-02-10T03:31:56.815Z,72.99
2019-02-10T03:34:55.823Z,72.82
2019-02-10T03:40:57.285Z,74.15
2019-02-10T03:46:33.622Z,71.98
2019-02-10T03:52:19.157Z,71.10
2019-02-10T03:58:07.587Z,71.48
2019-02-10T04:03:51.692Z,70.96
2019-02-10T04:06:39.209Z,70.98
2019-02-10T04:09:26.687Z,70.96
2019-02-10T04:14:53.535Z,71.09
2019-02-10T04:20:53.685Z,71.03
2019-02-10T04:26:24.601Z,72.00
2019-02-10T04:29:05.500Z,71.50
2019-02-10T04:37:30.273Z,72.18
2019-02-10T04:40:10.711Z,71.90
2019-02-10T04:43:00.438Z,71.55
2019-02-10T04:48:44.154Z,71.34
2019-02-10T04:51:23.635Z,71.58
2019-02-10T04:57:35.914Z,71.64
2019-02-10T05:05:46.404Z,72.11
2019-02-10T05:08:33.896Z,72.12
2019-02-10T05:11:35.683Z,71.96
2019-02-10T05:17:13.748Z,72.12
2019-02-10T05:23:02.522Z,72.89
2019-02-10T05:25:51.500Z,72.77
2019-02-10T05:31:27.889Z,73.05
2019-02-10T05:34:16.185Z,72.28
2019-02-10T05:36:55.040Z,72.54
2019-02-10T05:39:42.541Z,72.35
2019-02-10T05:46:50.679Z,72.69
2019-02-10T05:52:22.356Z,72.24
2019-02-10T05:54:50.980Z,72.06
2019-02-10T06:03:52.091Z,72.86
2019-02-10T06:09:48.898Z,71.94
2019-02-10T06:15:27.185Z,72.01
2019-02-10T06:18:06.011Z,72.53
2019-02-10T06:21:40.837Z,71.80
2019-02-10T06:23:34.147Z,72.76
2019-02-10T06:29:19.858Z,71.93
2019-02-10T06:32:19.034Z,71.97
2019-02-10T06:34:56.773Z,71.93
2019-02-10T06:43:41.710Z,71.75
2019-02-10T06:48:59.856Z,71.67
2019-02-10T06:51:38.706Z,71.82
2019-02-10T06:54:38.148Z,72.01
2019-02-10T06:57:15.643Z,72.04
2019-02-10T07:00:06.081Z,72.06
2019-02-10T07:06:03.043Z,71.92
2019-02-10T07:08:30.222Z,71.87
2019-02-10T07:11:23.139Z,71.91
2019-02-10T07:16:57.669Z,71.82
2019-02-10T07:19:57.449Z,71.86
2019-02-10T07:27:51.845Z,72.27
2019-02-10T07:33:40.993Z,73.22
2019-02-10T07:36:19.261Z,72.91
2019-02-10T07:39:20.692Z,73.34
2019-02-10T07:45:07.519Z,71.93
2019-02-10T07:47:45.353Z,71.95
2019-02-10T07:50:37.872Z,71.56
2019-02-10T07:53:44.135Z,71.86
2019-02-10T07:59:38.908Z,70.89
2019-02-10T08:05:27.287Z,70.60
2019-02-10T08:08:21.454Z,69.75
2019-02-10T08:11:07.902Z,69.20
2019-02-10T08:22:28.165Z,67.47
2019-02-10T08:34:14.708Z,66.90
2019-02-10T08:37:04.210Z,66.52
2019-02-10T08:39:37.812Z,67.02
2019-02-10T08:45:34.351Z,67.85
2019-02-10T08:51:38.685Z,66.66
2019-02-10T08:54:24.262Z,66.25
2019-02-10T08:58:43.661Z,66.15
2019-02-10T09:09:17.174Z,66.49
2019-02-10T09:12:24.083Z,67.18
2019-02-10T09:14:56.740Z,67.24
2019-02-10T09:17:30.516Z,66.92
2019-02-10T09:20:18.275Z,66.95
2019-02-10T13:38:24.325Z,63.54
2019-02-10T13:44:40.559Z,64.90
2019-02-10T13:51:00.779Z,64.71
2019-02-10T13:56:54.133Z,65.05
2019-02-10T14:18:08.146Z,64.14
2019-02-10T14:30:59.087Z,64.70
2019-02-10T14:33:42.634Z,65.25
2019-02-10T14:36:22.846Z,65.83
2019-02-10T14:39:14.768Z,66.57
2019-02-10T14:42:03.325Z,67.41
2019-02-10T15:06:58.714Z,67.83
2019-02-10T15:10:11.792Z,67.47
2019-02-10T15:22:16.575Z,67.85
2019-02-10T15:28:36.250Z,67.51
2019-02-10T15:35:14.093Z,67.41
2019-02-10T15:40:56.965Z,67.21
